createdAt,value
2023-03-05T00:03:59.641Z,67.80
2023-03-05T00:12:05.090Z,66.90
2023-03-05T00:20:14.587Z,66.90
2023-03-05T00:28:20.176Z,66.90
2023-03-05T00:36:29.456Z,67.00
2023-03-05T00:44:35.762Z,69.40
2023-03-05T00:52:43.844Z,72.00
2023-03-05T01:00:50.758Z,73.20
2023-03-05T01:08:59.694Z,74.30
2023-03-05T01:17:05.476Z,73.90
2023-03-05T01:25:15.203Z,73.20
2023-03-05T01:33:20.761Z,72.80
2023-03-05T01:41:28.907Z,73.10
2023-03-05T01:49:37.023Z,73.00
2023-03-05T01:57:48.559Z,74.30
2023-03-05T02:05:53.978Z,74.80
2023-03-05T02:14:02.455Z,75.00
2023-03-05T02:22:17.931Z,76.20
2023-03-05T02:30:24.257Z,76.60
2023-03-05T02:38:32.372Z,76.60
2023-03-05T02:46:38.562Z,76.40
2023-03-05T02:54:46.740Z,76.20
2023-03-05T03:02:52.393Z,76.30
2023-03-05T03:11:06.622Z,75.80
2023-03-05T03:19:12.069Z,75.90
2023-03-05T03:27:19.946Z,77.40
2023-03-05T03:35:25.514Z,77.30
2023-03-05T03:43:33.700Z,76.90
2023-03-05T03:51:39.114Z,76.60
2023-03-05T03:59:47.249Z,76.60
2023-03-05T04:07:52.617Z,76.40
2023-03-05T04:16:00.780Z,76.40
2023-03-05T04:24:06.374Z,77.00
2023-03-05T04:32:14.765Z,77.50
2023-03-05T04:40:20.893Z,76.70
2023-03-05T04:48:28.948Z,77.20
2023-03-05T04:56:34.467Z,77.00
2023-03-05T05:04:45.255Z,76.70
2023-03-05T05:12:50.830Z,75.70
2023-03-05T05:20:58.962Z,75.40
2023-03-05T05:29:04.497Z,75.80
2023-03-05T05:37:12.536Z,76.20
2023-03-05T05:45:18.070Z,76.30
2023-03-05T05:53:27.018Z,75.90
2023-03-05T06:01:34.986Z,76.00
2023-03-05T06:09:43.106Z,75.70
2023-03-05T06:17:48.694Z,75.70
2023-03-05T06:25:58.856Z,75.40
2023-03-05T06:34:04.704Z,74.70
2023-03-05T06:42:13.048Z,74.00
2023-03-05T06:50:18.646Z,72.60
2023-03-05T06:58:27.065Z,72.30
2023-03-05T07:06:34.918Z,70.90
2023-03-05T07:14:43.064Z,70.70
2023-03-05T07:22:48.681Z,70.20
2023-03-05T07:31:02.458Z,71.10
2023-03-05T07:39:07.730Z,70.60
2023-03-05T07:47:15.744Z,70.00
2023-03-05T07:55:21.334Z,69.40
2023-03-05T08:03:29.487Z,69.30
2023-03-05T08:11:35.173Z,68.20
2023-03-05T08:19:45.026Z,66.80
2023-03-05T08:27:51.257Z,65.60
2023-03-05T08:35:59.208Z,65.50
2023-03-05T08:44:05.123Z,65.50
2023-03-05T08:52:13.286Z,63.20
2023-03-05T09:00:19.529Z,62.10
2023-03-05T09:08:27.576Z,61.40
2023-03-05T09:16:33.198Z,60.80
2023-03-05T09:24:41.356Z,58.70
2023-03-05T09:32:47.058Z,58.50
2023-03-05T09:41:02.534Z,58.90
2023-03-05T09:49:18.196Z,57.80
2023-03-05T09:57:32.084Z,54.20
2023-03-05T10:05:56.613Z,56.50
2023-03-05T10:14:06.945Z,57.70
2023-03-05T10:22:22.060Z,58.70
2023-03-05T10:30:54.834Z,56.50
2023-03-05T10:39:28.206Z,53.40
2023-03-05T10:47:47.725Z,52.80
2023-03-05T10:55:56.752Z,50.40
2023-03-05T11:04:36.505Z,51.60
2023-03-05T11:12:42.358Z,53.40
2023-03-05T11:20:50.875Z,49.80
2023-03-05T11:29:00.802Z,50.40
2023-03-05T11:37:10.582Z,51.00
2023-03-05T11:45:22.323Z,52.20
2023-03-05T11:53:36.121Z,54.80
2023-03-05T12:01:46.777Z,56.20
2023-03-05T12:09:56.154Z,56.20
2023-03-05T12:18:13.935Z,56.60
2023-03-05T12:26:43.299Z,57.30
2023-03-05T12:34:53.430Z,57.80
2023-03-05T12:43:03.535Z,58.60
2023-03-05T12:51:31.126Z,59.30
2023-03-05T12:59:48.319Z,59.90
2023-03-05T13:07:54.030Z,61.20
2023-03-05T13:16:03.524Z,60.40
2023-03-05T13:24:23.327Z,59.80
2023-03-05T13:32:37.417Z,58.80
2023-03-05T13:40:44.956Z,60.60
2023-03-05T13:48:58.104Z,60.20
2023-03-05T13:57:08.834Z,60.80
2023-03-05T14:05:25.767Z,61.80
2023-03-05T14:13:33.779Z,62.30
2023-03-05T14:21:53.511Z,62.10
2023-03-05T14:30:00.480Z,62.60
2023-03-05T14:38:08.930Z,62.80
2023-03-05T14:46:18.080Z,63.90
2023-03-05T14:54:29.517Z,64.10
2023-03-05T15:02:35.007Z,64.70
2023-03-05T15:10:43.136Z,65.20
2023-03-05T15:18:48.971Z,65.70
2023-03-05T15:26:57.107Z,66.10
2023-03-05T15:35:04.857Z,66.30
2023-03-05T15:43:14.989Z,66.30
2023-03-05T15:51:23.103Z,66.50
2023-03-05T15:59:31.777Z,66.80
2023-03-05T16:07:39.852Z,67.10
2023-03-05T16:15:53.379Z,67.00
2023-03-05T16:23:59.604Z,66.80
2023-03-05T16:32:08.836Z,66.10
2023-03-05T16:40:16.057Z,65.40
2023-03-05T16:48:24.154Z,65.00
2023-03-05T16:56:30.080Z,65.10
2023-03-05T17:04:38.195Z,65.00
2023-03-05T17:12:44.350Z,65.00
2023-03-05T17:20:59.020Z,64.70
2023-03-05T17:29:04.702Z,64.70
2023-03-05T17:37:12.748Z,64.20
2023-03-05T17:45:18.725Z,64.80
2023-03-05T17:53:30.181Z,64.80
2023-03-05T18:01:37.291Z,64.20
2023-03-05T18:09:47.287Z,64.40
2023-03-05T18:17:53.232Z,64.60
2023-03-05T18:26:01.367Z,65.80
2023-03-05T18:34:06.795Z,65.70
2023-03-05T18:42:17.750Z,65.50
2023-03-05T18:50:24.582Z,66.00
2023-03-05T18:58:32.800Z,65.60
2023-03-05T19:06:38.934Z,64.10
2023-03-05T19:14:46.988Z,63.90
2023-03-05T19:22:53.037Z,64.10
2023-03-05T19:31:01.079Z,63.70
2023-03-05T19:39:07.475Z,63.80
2023-03-05T19:47:18.460Z,63.70
2023-03-05T19:55:24.092Z,63.80
2023-03-05T20:03:32.297Z,64.20
2023-03-05T20:11:38.082Z,65.20
2023-03-05T20:19:46.405Z,65.60
2023-03-05T20:27:51.842Z,66.00
2023-03-05T20:36:01.420Z,66.20
2023-03-05T20:44:07.731Z,66.20
2023-03-05T20:52:15.739Z,67.20
2023-03-05T21:00:21.836Z,67.70
2023-03-05T21:08:29.859Z,67.70
2023-03-05T21:16:35.495Z,67.90
2023-03-05T21:25:21.159Z,68.30
2023-03-05T21:33:28.557Z,68.10
2023-03-05T21:41:36.618Z,67.80
2023-03-05T21:49:41.984Z,66.20
2023-03-05T21:57:50.225Z,65.10
2023-03-05T22:05:55.922Z,64.20
2023-03-05T22:14:04.067Z,64.50
2023-03-05T22:22:09.659Z,65.20
2023-03-05T22:30:18.169Z,65.40
2023-03-05T22:38:24.418Z,65.30
2023-03-05T22:46:32.454Z,64.70
2023-03-05T22:54:37.818Z,64.50
2023-03-05T23:02:48.885Z,64.50
2023-03-05T23:10:54.323Z,63.90
2023-03-05T23:19:02.496Z,63.50
2023-03-05T23:27:09.406Z,63.30
2023-03-05T23:35:19.594Z,62.40
2023-03-05T23:43:27.546Z,62.90
2023-03-05T23:51:35.561Z,62.20
2023-03-05T23:59:40.898Z,61.70
